createdAt,value
2022-10-24T00:01:24.312Z,4.37
2022-10-24T00:03:52.205Z,4.67
2022-10-24T00:06:22.752Z,3.87
2022-10-24T00:08:52.124Z,4.27
2022-10-24T00:11:21.815Z,4.60
2022-10-24T00:13:50.293Z,4.50
2022-10-24T00:16:19.525Z,4.60
2022-10-24T00:18:47.497Z,4.27
2022-10-24T00:21:15.502Z,4.50
2022-10-24T00:23:43.104Z,4.00
2022-10-24T00:26:12.274Z,4.50
2022-10-24T00:28:41.152Z,4.47
2022-10-24T00:31:09.721Z,4.33
2022-10-24T00:33:38.970Z,4.30
2022-10-24T00:36:06.865Z,5.10
2022-10-24T00:38:34.473Z,4.30
2022-10-24T00:41:02.062Z,4.07
2022-10-24T00:43:29.651Z,4.33
2022-10-24T00:45:58.606Z,4.17
2022-10-24T00:48:28.827Z,4.30
2022-10-24T00:51:02.070Z,4.50
2022-10-24T00:53:31.128Z,4.60
2022-10-24T00:56:01.571Z,4.13
2022-10-24T00:58:32.674Z,4.10
2022-10-24T01:01:00.694Z,4.83
2022-10-24T01:03:29.225Z,4.47
2022-10-24T01:06:08.443Z,4.77
2022-10-24T01:08:40.079Z,5.07
2022-10-24T01:11:16.018Z,4.77
2022-10-24T01:13:51.819Z,4.80
2022-10-24T01:16:24.598Z,5.10
2022-10-24T01:18:56.030Z,5.47
2022-10-24T01:21:30.462Z,5.80
2022-10-24T01:24:07.686Z,5.10
2022-10-24T01:26:53.423Z,5.70
2022-10-24T01:29:33.954Z,5.87
2022-10-24T01:32:06.094Z,5.80
2022-10-24T01:34:37.718Z,5.90
2022-10-24T01:37:07.447Z,7.70
2022-10-24T01:39:39.000Z,7.33
2022-10-24T01:42:07.404Z,7.60
2022-10-24T01:44:39.615Z,8.77
2022-10-24T01:47:10.381Z,7.20
2022-10-24T01:49:39.956Z,6.27
2022-10-24T01:52:10.275Z,6.03
2022-10-24T01:54:39.443Z,5.50
2022-10-24T01:57:07.114Z,5.63
2022-10-24T01:59:44.592Z,4.73
2022-10-24T02:02:16.958Z,5.13
2022-10-24T02:04:49.955Z,4.93
2022-10-24T02:07:19.759Z,5.40
2022-10-24T02:09:51.205Z,5.50
2022-10-24T02:12:19.709Z,4.77
2022-10-24T02:14:52.444Z,4.87
2022-10-24T02:17:20.118Z,4.43
2022-10-24T02:19:47.984Z,4.50
2022-10-24T02:22:23.106Z,4.80
2022-10-24T02:24:53.895Z,5.00
2022-10-24T02:27:24.328Z,5.07
2022-10-24T02:29:56.131Z,4.60
2022-10-24T02:32:28.118Z,5.17
2022-10-24T02:34:56.432Z,4.10
2022-10-24T02:37:24.719Z,5.23
2022-10-24T02:39:53.499Z,5.20
2022-10-24T02:42:21.839Z,5.60
2022-10-24T02:44:50.184Z,4.83
2022-10-24T02:47:20.204Z,5.00
2022-10-24T02:49:47.730Z,5.00
2022-10-24T02:52:15.580Z,5.20
2022-10-24T02:54:43.097Z,4.67
2022-10-24T02:57:10.666Z,5.93
2022-10-24T02:59:38.210Z,4.93
2022-10-24T03:02:05.742Z,5.33
2022-10-24T03:04:34.662Z,5.23
2022-10-24T03:07:02.220Z,5.70
2022-10-24T03:09:29.771Z,5.10
2022-10-24T03:11:57.271Z,5.13
2022-10-24T03:14:24.817Z,5.10
2022-10-24T03:16:52.367Z,5.13
2022-10-24T03:19:19.999Z,4.57
2022-10-24T03:21:48.850Z,5.33
2022-10-24T03:24:22.945Z,4.70
2022-10-24T03:26:58.900Z,5.30
2022-10-24T03:29:26.443Z,4.97
2022-10-24T03:31:53.937Z,3.97
2022-10-24T03:34:21.477Z,5.03
2022-10-24T03:36:50.315Z,5.37
2022-10-24T03:39:17.879Z,4.70
2022-10-24T03:41:45.577Z,5.50
2022-10-24T03:44:13.107Z,4.47
2022-10-24T03:46:40.634Z,4.83
2022-10-24T03:49:08.237Z,4.53
2022-10-24T03:51:35.755Z,4.53
2022-10-24T03:54:04.958Z,4.80
2022-10-24T03:56:32.475Z,4.60
2022-10-24T03:59:00.078Z,4.73
2022-10-24T04:01:27.686Z,4.30
2022-10-24T04:03:55.337Z,4.50
2022-10-24T04:06:22.876Z,4.87
2022-10-24T04:08:50.444Z,4.70
2022-10-24T04:11:19.377Z,4.73
2022-10-24T04:13:46.947Z,4.47
2022-10-24T04:16:14.473Z,5.20
2022-10-24T04:18:42.049Z,5.40
2022-10-24T04:21:09.581Z,4.23
2022-10-24T04:23:40.950Z,5.30
2022-10-24T04:26:08.602Z,5.43
2022-10-24T04:28:37.534Z,4.70
2022-10-24T04:31:05.658Z,6.30
2022-10-24T04:33:33.231Z,5.57
2022-10-24T04:36:00.780Z,4.63
2022-10-24T04:38:33.208Z,5.17
2022-10-24T04:41:01.556Z,4.97
2022-10-24T04:43:29.085Z,5.17
2022-10-24T04:45:57.974Z,4.83
2022-10-24T04:48:25.561Z,5.17
2022-10-24T04:50:53.131Z,5.27
2022-10-24T04:53:20.738Z,5.10
2022-10-24T04:55:48.302Z,5.73
2022-10-24T04:58:16.037Z,5.20
2022-10-24T05:00:46.593Z,5.73
2022-10-24T05:03:15.589Z,4.63
2022-10-24T05:05:43.134Z,5.23
2022-10-24T05:08:10.699Z,5.40
2022-10-24T05:10:38.366Z,5.13
2022-10-24T05:13:05.957Z,4.83
2022-10-24T05:15:33.684Z,5.67
2022-10-24T05:18:01.578Z,4.73
2022-10-24T05:20:30.632Z,4.27
2022-10-24T05:22:58.289Z,5.17
2022-10-24T05:25:25.831Z,5.10
2022-10-24T05:27:53.401Z,5.40
2022-10-24T05:30:21.014Z,5.53
2022-10-24T05:32:48.588Z,4.73
2022-10-24T05:35:16.493Z,4.83
2022-10-24T05:37:45.510Z,5.07
2022-10-24T05:40:14.127Z,5.17
2022-10-24T05:42:41.737Z,4.57
2022-10-24T05:45:11.615Z,5.50
2022-10-24T05:47:39.309Z,4.70
2022-10-24T05:50:07.964Z,5.00
2022-10-24T05:52:36.431Z,4.80
2022-10-24T05:55:08.069Z,5.47
2022-10-24T05:57:36.765Z,5.37
2022-10-24T06:00:05.715Z,5.30
2022-10-24T06:02:33.354Z,5.47
2022-10-24T06:05:01.074Z,5.03
2022-10-24T06:07:28.593Z,5.53
2022-10-24T06:09:56.380Z,5.23
2022-10-24T06:12:25.607Z,5.83
2022-10-24T06:14:57.019Z,5.30
2022-10-24T06:17:24.541Z,5.17
2022-10-24T06:19:52.180Z,5.73
2022-10-24T06:22:20.158Z,5.87
2022-10-24T06:24:47.694Z,5.17
2022-10-24T06:27:15.613Z,5.90
2022-10-24T06:29:44.735Z,4.83
2022-10-24T06:32:12.425Z,6.30
2022-10-24T06:34:40.145Z,5.60
2022-10-24T06:37:07.669Z,6.33
2022-10-24T06:39:35.253Z,5.27
2022-10-24T06:42:03.133Z,5.93
2022-10-24T06:44:30.706Z,7.10
2022-10-24T06:46:59.594Z,5.43
2022-10-24T06:49:27.195Z,5.03
2022-10-24T06:51:54.725Z,7.30
2022-10-24T06:54:24.150Z,7.20
2022-10-24T06:56:54.025Z,8.60
2022-10-24T06:59:21.605Z,9.20
2022-10-24T07:01:49.305Z,14.30
2022-10-24T07:04:18.350Z,13.60
2022-10-24T07:06:45.964Z,15.33
2022-10-24T07:09:15.445Z,9.43
2022-10-24T07:11:43.635Z,10.73
2022-10-24T07:14:11.405Z,6.43
2022-10-24T07:16:39.345Z,7.80
2022-10-24T07:19:07.449Z,6.90
2022-10-24T07:21:36.437Z,7.50
2022-10-24T07:24:04.209Z,6.47
2022-10-24T07:26:32.328Z,5.60
2022-10-24T07:31:32.118Z,4.80
2022-10-24T07:34:01.465Z,5.37
2022-10-24T07:36:30.478Z,6.50
2022-10-24T07:39:01.414Z,6.30
2022-10-24T07:41:30.216Z,6.20
2022-10-24T07:43:58.383Z,6.80
2022-10-24T07:46:26.007Z,5.53
2022-10-24T07:48:54.225Z,5.77
2022-10-24T07:51:22.480Z,5.30
2022-10-24T07:53:50.475Z,6.20
2022-10-24T07:56:19.376Z,5.77
2022-10-24T07:58:49.130Z,5.83
2022-10-24T08:01:18.313Z,5.07
2022-10-24T08:03:46.651Z,4.73
2022-10-24T08:06:15.971Z,5.57
2022-10-24T08:08:43.801Z,5.60
2022-10-24T08:11:12.900Z,5.70
2022-10-24T08:13:41.827Z,5.23
2022-10-24T08:16:11.811Z,5.90
2022-10-24T08:18:40.123Z,5.13
2022-10-24T08:21:09.320Z,6.40
2022-10-24T08:23:38.633Z,5.87
2022-10-24T08:26:06.867Z,6.57
2022-10-24T08:28:34.568Z,6.03
2022-10-24T08:31:05.225Z,5.07
2022-10-24T08:33:33.301Z,4.70
2022-10-24T08:36:02.974Z,5.57
2022-10-24T08:38:31.049Z,4.83
2022-10-24T08:40:59.140Z,5.37
2022-10-24T08:43:26.921Z,5.07
2022-10-24T08:46:01.908Z,5.20
2022-10-24T08:48:33.868Z,4.43
2022-10-24T08:51:09.055Z,4.57
2022-10-24T08:53:36.972Z,4.27
2022-10-24T08:56:04.868Z,4.53
2022-10-24T08:58:35.729Z,4.97
2022-10-24T09:01:05.104Z,4.90
2022-10-24T09:03:51.228Z,4.00
2022-10-24T09:06:24.423Z,4.53
2022-10-24T09:08:53.809Z,4.83
2022-10-24T09:11:25.510Z,3.53
2022-10-24T09:13:53.206Z,3.47
2022-10-24T09:16:22.738Z,3.43
2022-10-24T09:18:52.959Z,3.07
2022-10-24T09:21:20.573Z,3.77
2022-10-24T09:23:48.348Z,3.73
2022-10-24T09:26:18.716Z,3.30
2022-10-24T09:28:46.251Z,2.90
2022-10-24T09:31:17.835Z,2.93
2022-10-24T09:33:46.328Z,3.00
2022-10-24T09:36:17.521Z,3.00
2022-10-24T09:38:46.746Z,3.20
2022-10-24T09:41:18.986Z,3.40
2022-10-24T09:43:53.302Z,3.07
2022-10-24T09:46:22.703Z,3.00
2022-10-24T09:48:53.214Z,2.47
2022-10-24T09:51:26.209Z,2.70
2022-10-24T09:54:03.785Z,2.57
2022-10-24T09:56:38.866Z,2.73
2022-10-24T09:59:24.055Z,2.60
2022-10-24T10:01:51.806Z,3.20
2022-10-24T10:04:20.323Z,2.03
2022-10-24T10:06:50.893Z,2.67
2022-10-24T10:09:25.678Z,2.73
2022-10-24T10:12:02.572Z,2.40
2022-10-24T10:14:30.881Z,2.80
2022-10-24T10:17:03.174Z,2.90
2022-10-24T10:19:31.853Z,2.33
2022-10-24T10:22:02.470Z,2.03
2022-10-24T10:24:39.874Z,2.33
2022-10-24T10:27:32.017Z,2.20
2022-10-24T10:30:11.135Z,2.20
2022-10-24T10:32:42.381Z,1.93
2022-10-24T10:35:15.511Z,2.20
2022-10-24T10:37:48.401Z,2.20
2022-10-24T10:40:27.371Z,2.20
2022-10-24T10:43:08.323Z,2.27
2022-10-24T10:45:37.606Z,1.60
2022-10-24T10:48:35.978Z,1.90
2022-10-24T10:51:08.304Z,1.90
2022-10-24T10:53:40.660Z,2.00
2022-10-24T10:56:19.361Z,1.97
2022-10-24T10:58:51.388Z,1.80
2022-10-24T11:01:25.508Z,2.20
2022-10-24T11:04:00.366Z,2.10
2022-10-24T11:06:35.985Z,1.77
2022-10-24T11:09:23.374Z,2.53
2022-10-24T11:11:54.240Z,1.70
2022-10-24T11:14:29.329Z,2.50
2022-10-24T11:16:59.650Z,1.90
2022-10-24T11:19:31.274Z,2.20
2022-10-24T11:22:02.793Z,1.83
2022-10-24T11:24:40.388Z,2.10
2022-10-24T11:27:10.897Z,1.93
2022-10-24T11:29:41.662Z,2.00
2022-10-24T11:32:17.919Z,1.90
2022-10-24T11:34:50.611Z,1.67
2022-10-24T11:37:20.452Z,1.83
2022-10-24T11:39:55.161Z,2.10
2022-10-24T11:42:27.619Z,2.67
2022-10-24T11:44:59.810Z,2.27
2022-10-24T11:47:45.362Z,1.87
2022-10-24T11:50:21.848Z,2.03
2022-10-24T11:52:53.909Z,1.70
2022-10-24T11:55:23.953Z,1.83
2022-10-24T11:57:53.904Z,1.33
2022-10-24T12:00:24.733Z,1.37
2022-10-24T12:03:24.376Z,1.70
2022-10-24T12:06:00.722Z,1.73
2022-10-24T12:08:50.803Z,1.70
2022-10-24T12:11:43.863Z,1.43
2022-10-24T12:14:46.968Z,1.63
2022-10-24T12:17:39.511Z,1.90
2022-10-24T12:20:09.216Z,1.57
2022-10-24T12:22:39.691Z,1.50
2022-10-24T12:25:09.198Z,1.73
2022-10-24T12:27:39.832Z,1.27
2022-10-24T12:30:17.237Z,1.30
2022-10-24T12:32:46.849Z,1.73
2022-10-24T12:35:34.815Z,1.37
2022-10-24T12:38:02.924Z,1.63
2022-10-24T12:40:58.533Z,1.40
2022-10-24T12:43:33.082Z,1.10
2022-10-24T12:46:01.865Z,1.20
2022-10-24T12:48:32.126Z,1.70
2022-10-24T12:51:05.683Z,1.33
2022-10-24T12:53:39.199Z,1.30
2022-10-24T12:56:15.420Z,1.40
2022-10-24T12:58:46.711Z,1.50
2022-10-24T13:01:25.887Z,1.43
2022-10-24T13:04:27.075Z,1.10
2022-10-24T13:07:09.009Z,1.50
2022-10-24T13:09:41.560Z,1.40
2022-10-24T13:12:19.871Z,1.20
2022-10-24T13:15:01.395Z,1.60
2022-10-24T13:17:33.621Z,1.17
2022-10-24T13:20:07.090Z,1.27
2022-10-24T13:22:37.111Z,1.73
2022-10-24T13:25:20.759Z,1.50
2022-10-24T13:28:27.246Z,1.40
2022-10-24T13:31:28.581Z,1.43
2022-10-24T13:34:14.221Z,1.50
2022-10-24T13:36:43.196Z,1.20
2022-10-24T13:39:13.051Z,1.77
2022-10-24T13:41:43.003Z,1.60
2022-10-24T13:44:20.274Z,1.23
2022-10-24T13:46:53.468Z,1.80
2022-10-24T13:49:29.246Z,1.30
2022-10-24T13:51:58.162Z,1.10
2022-10-24T13:54:28.315Z,1.57
2022-10-24T13:56:58.496Z,1.10
2022-10-24T13:59:31.124Z,1.53
2022-10-24T14:01:59.866Z,1.30
2022-10-24T14:04:29.246Z,1.60
2022-10-24T14:07:02.440Z,1.50
2022-10-24T14:09:30.016Z,1.20
2022-10-24T14:11:58.025Z,1.30
2022-10-24T14:14:29.456Z,1.30
2022-10-24T14:17:22.756Z,1.30
2022-10-24T14:19:55.385Z,1.40
2022-10-24T14:22:25.456Z,1.50
2022-10-24T14:24:53.226Z,1.40
2022-10-24T14:27:21.168Z,1.57
2022-10-24T14:29:54.672Z,1.70
2022-10-24T14:32:22.340Z,1.27
2022-10-24T14:34:51.999Z,1.77
2022-10-24T14:37:27.027Z,1.50
2022-10-24T14:39:55.245Z,1.40
2022-10-24T14:42:22.817Z,1.40
2022-10-24T14:44:54.840Z,1.43
2022-10-24T14:47:29.207Z,1.40
2022-10-24T14:49:59.000Z,1.70
2022-10-24T14:52:29.022Z,1.37
2022-10-24T14:55:01.105Z,1.30
2022-10-24T14:57:29.944Z,1.30
2022-10-24T14:59:59.692Z,1.43
2022-10-24T15:02:29.272Z,1.50
2022-10-24T15:05:29.370Z,1.63
2022-10-24T15:08:21.737Z,1.50
2022-10-24T15:10:50.351Z,1.20
2022-10-24T15:13:21.039Z,1.43
2022-10-24T15:15:52.237Z,1.30
2022-10-24T15:18:22.414Z,1.30
2022-10-24T15:20:51.857Z,1.20
2022-10-24T15:23:23.761Z,1.40
2022-10-24T15:26:00.956Z,1.43
2022-10-24T15:28:37.270Z,1.77
2022-10-24T15:31:04.985Z,1.50
2022-10-24T15:33:32.680Z,1.20
2022-10-24T15:36:00.251Z,1.53
2022-10-24T15:38:29.171Z,1.70
2022-10-24T15:40:58.301Z,1.63
2022-10-24T15:43:25.858Z,1.50
2022-10-24T15:45:53.421Z,1.60
2022-10-24T15:48:21.097Z,1.40
2022-10-24T15:50:48.659Z,1.23
2022-10-24T15:53:18.762Z,1.43
2022-10-24T15:55:47.970Z,1.53
2022-10-24T15:58:16.683Z,1.80
2022-10-24T16:00:44.435Z,1.50
2022-10-24T16:03:15.290Z,1.53
2022-10-24T16:05:44.419Z,1.53
2022-10-24T16:08:14.465Z,1.13
2022-10-24T16:10:42.280Z,1.90
2022-10-24T16:13:11.545Z,1.47
2022-10-24T16:15:39.910Z,1.70
2022-10-24T16:18:07.679Z,1.80
2022-10-24T16:20:35.849Z,1.23
2022-10-24T16:23:04.401Z,1.70
2022-10-24T16:25:33.979Z,2.23
2022-10-24T16:28:01.840Z,1.60
2022-10-24T16:30:33.116Z,1.73
2022-10-24T16:33:00.707Z,1.90
2022-10-24T16:35:30.045Z,1.67
2022-10-24T16:37:59.255Z,1.90
2022-10-24T16:40:27.794Z,1.77
2022-10-24T16:42:56.518Z,1.73
2022-10-24T16:45:24.417Z,1.90
2022-10-24T16:47:53.568Z,1.90
2022-10-24T16:50:24.303Z,1.80
2022-10-24T16:52:52.996Z,1.53
2022-10-24T16:55:21.005Z,1.60
2022-10-24T16:57:49.107Z,2.37
2022-10-24T17:00:17.871Z,2.00
2022-10-24T17:02:46.266Z,1.60
2022-10-24T17:05:16.179Z,1.90
2022-10-24T17:07:44.650Z,1.93
2022-10-24T17:10:13.367Z,2.27
2022-10-24T17:12:42.675Z,1.67
2022-10-24T17:15:11.469Z,2.23
2022-10-24T17:17:39.823Z,1.87
2022-10-24T17:20:09.041Z,1.70
2022-10-24T17:22:39.745Z,1.80
2022-10-24T17:25:08.613Z,1.73
2022-10-24T17:27:36.399Z,1.80
2022-10-24T17:30:04.408Z,1.87
2022-10-24T17:32:33.089Z,1.90
2022-10-24T17:35:01.112Z,1.97
2022-10-24T17:37:38.725Z,1.90
2022-10-24T17:40:14.119Z,2.43
2022-10-24T17:42:43.249Z,1.60
2022-10-24T17:45:15.173Z,2.23
2022-10-24T17:47:43.221Z,2.07
2022-10-24T17:50:11.239Z,1.30
2022-10-24T17:52:42.209Z,2.20
2022-10-24T17:55:41.040Z,1.50
2022-10-24T17:58:06.491Z,1.40
2022-10-24T18:00:34.350Z,2.00
2022-10-24T18:03:01.986Z,1.90
2022-10-24T18:05:29.763Z,2.30
2022-10-24T18:07:57.891Z,2.00
2022-10-24T18:10:26.807Z,1.97
2022-10-24T18:12:54.387Z,2.00
2022-10-24T18:15:22.186Z,1.73
2022-10-24T18:17:49.783Z,1.93
2022-10-24T18:20:18.517Z,2.17
2022-10-24T18:22:46.362Z,1.70
2022-10-24T18:25:18.767Z,2.10
2022-10-24T18:27:51.084Z,2.00
2022-10-24T18:30:19.738Z,2.30
2022-10-24T18:32:47.977Z,2.43
2022-10-24T18:35:16.700Z,1.57
2022-10-24T18:37:44.376Z,2.07
2022-10-24T18:40:13.292Z,1.60
2022-10-24T18:42:44.660Z,2.30
2022-10-24T18:45:19.904Z,2.33
2022-10-24T18:47:48.351Z,2.40
2022-10-24T18:50:20.207Z,2.17
2022-10-24T18:52:51.490Z,2.37
2022-10-24T18:55:21.901Z,2.07
2022-10-24T18:57:50.573Z,1.90
2022-10-24T19:00:21.401Z,2.30
2022-10-24T19:02:57.263Z,2.10
2022-10-24T19:05:27.571Z,2.00
2022-10-24T19:07:55.317Z,1.80
2022-10-24T19:10:25.194Z,1.90
2022-10-24T19:12:54.230Z,2.20
2022-10-24T19:15:24.203Z,1.93
2022-10-24T19:17:52.398Z,2.10
2022-10-24T19:20:22.464Z,2.20
2022-10-24T19:22:50.290Z,1.87
2022-10-24T19:25:18.677Z,1.83
2022-10-24T19:27:46.349Z,1.60
2022-10-24T19:30:14.645Z,1.53
2022-10-24T19:32:43.828Z,1.90
2022-10-24T19:35:11.666Z,1.83
2022-10-24T19:37:39.345Z,1.63
2022-10-24T19:40:08.453Z,1.63
2022-10-24T19:42:36.167Z,2.20
2022-10-24T19:45:05.165Z,1.97
2022-10-24T19:47:32.811Z,2.37
2022-10-24T19:50:01.822Z,2.07
2022-10-24T19:52:29.497Z,2.10
2022-10-24T19:54:57.015Z,2.10
2022-10-24T19:57:24.607Z,2.27
2022-10-24T19:59:53.743Z,1.83
2022-10-24T20:02:22.121Z,2.20
2022-10-24T20:04:49.701Z,1.97
2022-10-24T20:07:18.635Z,1.83
2022-10-24T20:09:46.165Z,2.17
2022-10-24T20:12:13.688Z,2.03
2022-10-24T20:14:41.260Z,1.50
2022-10-24T20:17:08.797Z,2.50
2022-10-24T20:19:36.511Z,2.17
2022-10-24T20:22:04.102Z,1.50
2022-10-24T20:24:33.514Z,1.80
2022-10-24T20:27:01.234Z,1.97
2022-10-24T20:29:28.894Z,2.10
2022-10-24T20:31:56.602Z,1.73
2022-10-24T20:34:24.260Z,1.87
2022-10-24T20:36:54.937Z,1.60
2022-10-24T20:39:22.552Z,1.97
2022-10-24T20:41:54.009Z,2.17
2022-10-24T20:44:22.141Z,1.97
2022-10-24T20:46:49.874Z,2.13
2022-10-24T20:49:17.579Z,1.97
2022-10-24T20:51:45.163Z,1.47
2022-10-24T20:54:12.750Z,1.40
2022-10-24T20:56:42.541Z,1.87
2022-10-24T20:59:14.972Z,2.33
2022-10-24T21:01:42.634Z,1.67
2022-10-24T21:04:15.701Z,2.03
2022-10-24T21:06:46.326Z,1.77
2022-10-24T21:09:17.722Z,1.63
2022-10-24T21:11:45.329Z,1.87
2022-10-24T21:14:17.945Z,1.70
2022-10-24T21:16:45.495Z,1.60
2022-10-24T21:19:13.149Z,2.27
2022-10-24T21:21:40.802Z,1.43
2022-10-24T21:24:08.619Z,1.93
2022-10-24T21:26:38.102Z,1.83
2022-10-24T21:29:31.792Z,1.87
2022-10-24T21:31:55.315Z,1.97
2022-10-24T21:34:23.071Z,1.90
2022-10-24T21:36:50.710Z,2.03
2022-10-24T21:39:18.687Z,2.00
2022-10-24T21:41:46.514Z,2.00
2022-10-24T21:44:15.012Z,1.70
2022-10-24T21:46:44.969Z,1.37
2022-10-24T21:49:16.088Z,2.27
2022-10-24T21:51:44.941Z,1.50
2022-10-24T21:54:17.300Z,2.10
2022-10-24T21:56:45.186Z,1.53
2022-10-24T21:59:14.084Z,1.77
2022-10-24T22:01:42.622Z,2.03
2022-10-24T22:04:12.145Z,1.90
2022-10-24T22:06:41.864Z,2.00
2022-10-24T22:09:12.589Z,1.60
2022-10-24T22:11:41.668Z,1.20
2022-10-24T22:14:11.313Z,1.63
2022-10-24T22:16:39.274Z,1.40
2022-10-24T22:19:07.121Z,1.90
2022-10-24T22:21:36.977Z,1.97
2022-10-24T22:26:35.836Z,1.93
2022-10-24T22:29:03.500Z,1.50
2022-10-24T22:31:31.654Z,1.80
2022-10-24T22:34:11.588Z,1.47
2022-10-24T22:37:12.027Z,1.73
2022-10-24T22:39:41.724Z,1.77
2022-10-24T22:42:12.428Z,1.23
2022-10-24T22:44:43.241Z,1.50
2022-10-24T22:47:21.752Z,1.83
2022-10-24T22:49:55.442Z,1.73
2022-10-24T22:52:23.528Z,1.70
2022-10-24T22:54:53.416Z,1.43
2022-10-24T22:57:21.573Z,1.37
2022-10-24T22:59:49.763Z,1.57
2022-10-24T23:02:25.948Z,1.60
2022-10-24T23:05:01.791Z,1.70
2022-10-24T23:07:37.116Z,1.73
2022-10-24T23:10:09.480Z,1.60
2022-10-24T23:12:37.746Z,1.43
2022-10-24T23:15:06.456Z,1.80
2022-10-24T23:17:34.640Z,1.37
2022-10-24T23:20:02.764Z,1.30
2022-10-24T23:22:31.609Z,1.70
2022-10-24T23:25:00.942Z,1.50
2022-10-24T23:27:34.311Z,1.67
2022-10-24T23:30:03.165Z,1.53
2022-10-24T23:32:32.763Z,1.70
2022-10-24T23:35:01.146Z,1.50
2022-10-24T23:37:33.855Z,1.80
2022-10-24T23:40:02.660Z,1.97
2022-10-24T23:42:32.234Z,1.80
2022-10-24T23:45:00.355Z,1.20
2022-10-24T23:47:50.632Z,1.77
2022-10-24T23:50:24.555Z,1.33
2022-10-24T23:53:03.798Z,1.30
2022-10-24T23:55:32.156Z,1.47
2022-10-24T23:58:01.916Z,2.00
